sensor_id;sensor_type;location;lat;lon;timestamp;temperature;humidity
55064;DHT22;40963;52.168;21.296;2023-06-14T00:00:42;12.10;99.90
55064;DHT22;40963;52.168;21.296;2023-06-14T00:03:08;12.10;99.90
55064;DHT22;40963;52.168;21.296;2023-06-14T00:05:38;12.00;99.90
55064;DHT22;40963;52.168;21.296;2023-06-14T00:08:08;12.10;99.90
55064;DHT22;40963;52.168;21.296;2023-06-14T00:10:35;12.00;99.90
55064;DHT22;40963;52.168;21.296;2023-06-14T00:13:02;12.00;99.90
55064;DHT22;40963;52.168;21.296;2023-06-14T00:15:28;12.00;99.90
55064;DHT22;40963;52.168;21.296;2023-06-14T00:17:53;12.10;99.90
55064;DHT22;40963;52.168;21.296;2023-06-14T00:20:20;12.10;99.90
55064;DHT22;40963;52.168;21.296;2023-06-14T00:22:46;12.10;99.90
55064;DHT22;40963;52.168;21.296;2023-06-14T00:25:13;12.10;99.90
55064;DHT22;40963;52.168;21.296;2023-06-14T00:27:39;12.00;99.90
55064;DHT22;40963;52.168;21.296;2023-06-14T00:30:04;12.10;99.90
55064;DHT22;40963;52.168;21.296;2023-06-14T00:32:30;12.00;99.90
55064;DHT22;40963;52.168;21.296;2023-06-14T00:34:56;12.00;99.90
55064;DHT22;40963;52.168;21.296;2023-06-14T00:37:21;12.00;99.90
55064;DHT22;40963;52.168;21.296;2023-06-14T00:39:47;12.00;99.90
55064;DHT22;40963;52.168;21.296;2023-06-14T00:42:23;12.00;99.90
55064;DHT22;40963;52.168;21.296;2023-06-14T00:44:50;12.00;99.90
55064;DHT22;40963;52.168;21.296;2023-06-14T00:47:15;12.00;99.90
55064;DHT22;40963;52.168;21.296;2023-06-14T00:49:41;12.00;99.90
55064;DHT22;40963;52.168;21.296;2023-06-14T00:52:07;12.00;99.90
55064;DHT22;40963;52.168;21.296;2023-06-14T00:54:33;12.00;99.90
55064;DHT22;40963;52.168;21.296;2023-06-14T00:56:58;12.00;99.90
55064;DHT22;40963;52.168;21.296;2023-06-14T00:59:24;12.00;99.90
55064;DHT22;40963;52.168;21.296;2023-06-14T01:01:50;12.00;99.90
55064;DHT22;40963;52.168;21.296;2023-06-14T01:04:16;12.00;99.90
55064;DHT22;40963;52.168;21.296;2023-06-14T01:09:25;12.00;99.90
55064;DHT22;40963;52.168;21.296;2023-06-14T01:12:11;12.00;99.90
55064;DHT22;40963;52.168;21.296;2023-06-14T01:14:39;12.00;99.90
55064;DHT22;40963;52.168;21.296;2023-06-14T01:17:07;12.00;99.90
55064;DHT22;40963;52.168;21.296;2023-06-14T01:19:41;12.00;99.90
55064;DHT22;40963;52.168;21.296;2023-06-14T01:22:08;12.00;99.90
55064;DHT22;40963;52.168;21.296;2023-06-14T01:24:34;12.00;99.90
55064;DHT22;40963;52.168;21.296;2023-06-14T01:27:00;12.00;99.90
55064;DHT22;40963;52.168;21.296;2023-06-14T01:29:27;12.00;99.90
55064;DHT22;40963;52.168;21.296;2023-06-14T01:31:53;12.00;99.90
55064;DHT22;40963;52.168;21.296;2023-06-14T01:34:20;12.00;99.90
55064;DHT22;40963;52.168;21.296;2023-06-14T01:36:46;12.00;99.90
55064;DHT22;40963;52.168;21.296;2023-06-14T01:39:14;12.00;99.90
55064;DHT22;40963;52.168;21.296;2023-06-14T01:41:41;12.00;99.90
55064;DHT22;40963;52.168;21.296;2023-06-14T01:44:08;12.00;99.90
55064;DHT22;40963;52.168;21.296;2023-06-14T01:46:35;12.10;99.90
55064;DHT22;40963;52.168;21.296;2023-06-14T01:49:01;12.10;99.90
55064;DHT22;40963;52.168;21.296;2023-06-14T01:51:27;12.10;99.90
55064;DHT22;40963;52.168;21.296;2023-06-14T01:53:53;12.10;99.90
55064;DHT22;40963;52.168;21.296;2023-06-14T01:56:18;12.10;99.90
55064;DHT22;40963;52.168;21.296;2023-06-14T01:58:45;12.10;99.90
55064;DHT22;40963;52.168;21.296;2023-06-14T02:01:11;12.10;99.90
55064;DHT22;40963;52.168;21.296;2023-06-14T02:03:38;12.10;99.90
55064;DHT22;40963;52.168;21.296;2023-06-14T02:06:04;12.10;99.90
55064;DHT22;40963;52.168;21.296;2023-06-14T02:08:29;12.10;99.90
55064;DHT22;40963;52.168;21.296;2023-06-14T02:10:55;12.10;99.90
55064;DHT22;40963;52.168;21.296;2023-06-14T02:13:21;12.10;99.90
55064;DHT22;40963;52.168;21.296;2023-06-14T02:15:46;12.10;99.90
55064;DHT22;40963;52.168;21.296;2023-06-14T02:18:16;12.00;99.90
55064;DHT22;40963;52.168;21.296;2023-06-14T02:20:42;12.10;99.90
55064;DHT22;40963;52.168;21.296;2023-06-14T02:23:07;12.10;99.90
55064;DHT22;40963;52.168;21.296;2023-06-14T02:25:33;12.10;99.90
55064;DHT22;40963;52.168;21.296;2023-06-14T02:27:58;12.10;99.90
55064;DHT22;40963;52.168;21.296;2023-06-14T02:30:24;12.10;99.90
55064;DHT22;40963;52.168;21.296;2023-06-14T02:32:50;12.10;99.90
55064;DHT22;40963;52.168;21.296;2023-06-14T02:35:16;12.10;99.90
55064;DHT22;40963;52.168;21.296;2023-06-14T02:37:42;12.20;99.90
55064;DHT22;40963;52.168;21.296;2023-06-14T02:40:08;12.20;99.90
55064;DHT22;40963;52.168;21.296;2023-06-14T02:42:34;12.20;99.90
55064;DHT22;40963;52.168;21.296;2023-06-14T02:45:00;12.20;99.90
55064;DHT22;40963;52.168;21.296;2023-06-14T02:47:26;12.20;99.90
55064;DHT22;40963;52.168;21.296;2023-06-14T02:49:51;12.20;99.90
55064;DHT22;40963;52.168;21.296;2023-06-14T02:52:17;12.10;99.90
55064;DHT22;40963;52.168;21.296;2023-06-14T02:54:42;12.10;99.90
55064;DHT22;40963;52.168;21.296;2023-06-14T02:57:08;12.10;99.90
55064;DHT22;40963;52.168;21.296;2023-06-14T02:59:34;12.10;99.90
55064;DHT22;40963;52.168;21.296;2023-06-14T03:02:00;12.10;99.90
55064;DHT22;40963;52.168;21.296;2023-06-14T03:04:26;12.10;99.90
55064;DHT22;40963;52.168;21.296;2023-06-14T03:06:52;12.10;99.90
55064;DHT22;40963;52.168;21.296;2023-06-14T03:09:19;12.10;99.90
55064;DHT22;40963;52.168;21.296;2023-06-14T03:11:45;12.10;99.90
55064;DHT22;40963;52.168;21.296;2023-06-14T03:14:10;12.10;99.90
55064;DHT22;40963;52.168;21.296;2023-06-14T03:16:36;12.10;99.90
55064;DHT22;40963;52.168;21.296;2023-06-14T03:19:02;12.10;99.90
55064;DHT22;40963;52.168;21.296;2023-06-14T03:21:28;12.10;99.90
55064;DHT22;40963;52.168;21.296;2023-06-14T03:23:54;12.10;99.90
55064;DHT22;40963;52.168;21.296;2023-06-14T03:26:20;12.10;99.90
55064;DHT22;40963;52.168;21.296;2023-06-14T03:28:46;12.10;99.90
55064;DHT22;40963;52.168;21.296;2023-06-14T03:31:12;12.10;99.90
55064;DHT22;40963;52.168;21.296;2023-06-14T03:33:39;12.20;99.90
55064;DHT22;40963;52.168;21.296;2023-06-14T03:36:05;12.10;99.90
55064;DHT22;40963;52.168;21.296;2023-06-14T03:38:31;12.10;99.90
55064;DHT22;40963;52.168;21.296;2023-06-14T03:40:56;12.10;99.90
55064;DHT22;40963;52.168;21.296;2023-06-14T03:43:22;12.10;99.90
55064;DHT22;40963;52.168;21.296;2023-06-14T03:45:47;12.10;99.90
55064;DHT22;40963;52.168;21.296;2023-06-14T03:48:13;12.10;99.90
55064;DHT22;40963;52.168;21.296;2023-06-14T03:50:39;12.20;99.90
55064;DHT22;40963;52.168;21.296;2023-06-14T03:53:05;12.20;99.90
55064;DHT22;40963;52.168;21.296;2023-06-14T03:55:30;12.20;99.90
55064;DHT22;40963;52.168;21.296;2023-06-14T03:57:59;12.20;99.90
55064;DHT22;40963;52.168;21.296;2023-06-14T04:00:25;12.30;99.90
55064;DHT22;40963;52.168;21.296;2023-06-14T04:02:51;12.30;99.90
55064;DHT22;40963;52.168;21.296;2023-06-14T04:05:17;12.30;99.90
55064;DHT22;40963;52.168;21.296;2023-06-14T04:07:45;12.30;99.90
55064;DHT22;40963;52.168;21.296;2023-06-14T04:10:11;12.40;99.90
55064;DHT22;40963;52.168;21.296;2023-06-14T04:12:37;12.40;99.90
55064;DHT22;40963;52.168;21.296;2023-06-14T04:15:03;12.40;99.90
55064;DHT22;40963;52.168;21.296;2023-06-14T04:17:32;12.40;99.90
55064;DHT22;40963;52.168;21.296;2023-06-14T04:19:58;12.40;99.90
55064;DHT22;40963;52.168;21.296;2023-06-14T04:22:25;12.50;99.90
55064;DHT22;40963;52.168;21.296;2023-06-14T04:24:54;12.50;99.90
55064;DHT22;40963;52.168;21.296;2023-06-14T04:27:22;12.60;99.90
55064;DHT22;40963;52.168;21.296;2023-06-14T04:29:54;12.60;99.90
55064;DHT22;40963;52.168;21.296;2023-06-14T04:32:28;12.60;99.90
55064;DHT22;40963;52.168;21.296;2023-06-14T04:34:55;12.60;99.90
55064;DHT22;40963;52.168;21.296;2023-06-14T04:37:24;12.70;99.90
55064;DHT22;40963;52.168;21.296;2023-06-14T04:39:50;12.70;99.90
55064;DHT22;40963;52.168;21.296;2023-06-14T04:42:17;12.70;99.90
55064;DHT22;40963;52.168;21.296;2023-06-14T04:44:46;12.70;99.90
55064;DHT22;40963;52.168;21.296;2023-06-14T04:47:14;12.80;99.90
55064;DHT22;40963;52.168;21.296;2023-06-14T04:49:41;12.80;99.90
55064;DHT22;40963;52.168;21.296;2023-06-14T04:52:07;12.80;99.90
55064;DHT22;40963;52.168;21.296;2023-06-14T04:54:36;12.90;99.90
55064;DHT22;40963;52.168;21.296;2023-06-14T04:57:06;12.90;99.90
55064;DHT22;40963;52.168;21.296;2023-06-14T04:59:32;12.90;99.90
55064;DHT22;40963;52.168;21.296;2023-06-14T05:02:01;12.90;99.90
55064;DHT22;40963;52.168;21.296;2023-06-14T05:04:27;13.00;99.90
55064;DHT22;40963;52.168;21.296;2023-06-14T05:06:53;13.00;99.90
55064;DHT22;40963;52.168;21.296;2023-06-14T05:09:20;13.00;99.90
55064;DHT22;40963;52.168;21.296;2023-06-14T05:11:46;13.00;99.90
55064;DHT22;40963;52.168;21.296;2023-06-14T05:14:13;13.10;99.90
55064;DHT22;40963;52.168;21.296;2023-06-14T05:16:40;13.10;99.90
55064;DHT22;40963;52.168;21.296;2023-06-14T05:19:06;13.10;99.90
55064;DHT22;40963;52.168;21.296;2023-06-14T05:21:32;13.20;99.90
55064;DHT22;40963;52.168;21.296;2023-06-14T05:24:00;13.20;99.90
55064;DHT22;40963;52.168;21.296;2023-06-14T05:26:26;13.20;99.90
55064;DHT22;40963;52.168;21.296;2023-06-14T05:28:56;13.20;99.90
55064;DHT22;40963;52.168;21.296;2023-06-14T05:31:25;13.20;99.90
55064;DHT22;40963;52.168;21.296;2023-06-14T05:33:52;13.20;99.90
55064;DHT22;40963;52.168;21.296;2023-06-14T05:36:17;13.30;99.90
55064;DHT22;40963;52.168;21.296;2023-06-14T05:38:43;13.30;99.90
55064;DHT22;40963;52.168;21.296;2023-06-14T05:41:09;13.30;99.90
55064;DHT22;40963;52.168;21.296;2023-06-14T05:43:34;13.30;99.90
55064;DHT22;40963;52.168;21.296;2023-06-14T05:46:00;13.30;99.90
55064;DHT22;40963;52.168;21.296;2023-06-14T05:48:26;13.30;99.90
55064;DHT22;40963;52.168;21.296;2023-06-14T05:50:51;13.30;99.90
55064;DHT22;40963;52.168;21.296;2023-06-14T05:53:17;13.30;99.90
55064;DHT22;40963;52.168;21.296;2023-06-14T05:55:42;13.40;99.90
55064;DHT22;40963;52.168;21.296;2023-06-14T05:58:08;13.40;99.90
55064;DHT22;40963;52.168;21.296;2023-06-14T06:00:34;13.40;99.90
55064;DHT22;40963;52.168;21.296;2023-06-14T06:02:59;13.40;99.90
55064;DHT22;40963;52.168;21.296;2023-06-14T06:05:26;13.40;99.90
55064;DHT22;40963;52.168;21.296;2023-06-14T06:07:52;13.40;99.90
55064;DHT22;40963;52.168;21.296;2023-06-14T06:10:17;13.50;99.90
55064;DHT22;40963;52.168;21.296;2023-06-14T06:12:43;13.50;99.90
55064;DHT22;40963;52.168;21.296;2023-06-14T06:15:09;13.60;99.90
55064;DHT22;40963;52.168;21.296;2023-06-14T06:17:38;13.60;99.90
55064;DHT22;40963;52.168;21.296;2023-06-14T06:20:05;13.70;99.90
55064;DHT22;40963;52.168;21.296;2023-06-14T06:22:33;13.80;99.90
55064;DHT22;40963;52.168;21.296;2023-06-14T06:24:59;13.80;99.90
55064;DHT22;40963;52.168;21.296;2023-06-14T06:27:25;13.90;99.90
55064;DHT22;40963;52.168;21.296;2023-06-14T06:29:51;14.00;99.90
55064;DHT22;40963;52.168;21.296;2023-06-14T06:32:17;14.00;99.90
55064;DHT22;40963;52.168;21.296;2023-06-14T06:34:43;14.10;99.90
55064;DHT22;40963;52.168;21.296;2023-06-14T06:37:08;14.10;99.90
55064;DHT22;40963;52.168;21.296;2023-06-14T06:39:34;14.10;99.90
55064;DHT22;40963;52.168;21.296;2023-06-14T06:42:00;14.20;99.90
55064;DHT22;40963;52.168;21.296;2023-06-14T06:44:25;14.20;99.90
55064;DHT22;40963;52.168;21.296;2023-06-14T06:46:51;14.20;99.90
55064;DHT22;40963;52.168;21.296;2023-06-14T06:49:17;14.20;99.90
55064;DHT22;40963;52.168;21.296;2023-06-14T06:51:42;14.20;99.90
55064;DHT22;40963;52.168;21.296;2023-06-14T06:54:08;14.20;99.90
55064;DHT22;40963;52.168;21.296;2023-06-14T06:56:35;14.30;99.90
55064;DHT22;40963;52.168;21.296;2023-06-14T06:59:01;14.30;99.90
55064;DHT22;40963;52.168;21.296;2023-06-14T07:01:26;14.30;99.90
55064;DHT22;40963;52.168;21.296;2023-06-14T07:03:54;14.40;99.90
55064;DHT22;40963;52.168;21.296;2023-06-14T07:06:20;14.40;99.90
55064;DHT22;40963;52.168;21.296;2023-06-14T07:08:46;14.40;99.90
55064;DHT22;40963;52.168;21.296;2023-06-14T07:11:13;14.50;99.90
55064;DHT22;40963;52.168;21.296;2023-06-14T07:13:39;14.50;99.90
55064;DHT22;40963;52.168;21.296;2023-06-14T07:16:05;14.60;99.90
55064;DHT22;40963;52.168;21.296;2023-06-14T07:18:31;14.60;99.90
55064;DHT22;40963;52.168;21.296;2023-06-14T07:20:57;14.60;99.90
55064;DHT22;40963;52.168;21.296;2023-06-14T07:23:23;14.60;99.90
55064;DHT22;40963;52.168;21.296;2023-06-14T07:25:49;14.70;99.90
55064;DHT22;40963;52.168;21.296;2023-06-14T07:28:16;14.70;99.90
55064;DHT22;40963;52.168;21.296;2023-06-14T07:30:42;14.80;99.90
55064;DHT22;40963;52.168;21.296;2023-06-14T07:33:07;14.80;99.90
55064;DHT22;40963;52.168;21.296;2023-06-14T07:35:34;14.90;99.90
55064;DHT22;40963;52.168;21.296;2023-06-14T07:38:00;14.90;99.90
55064;DHT22;40963;52.168;21.296;2023-06-14T07:40:25;15.00;99.90
55064;DHT22;40963;52.168;21.296;2023-06-14T07:42:51;15.00;99.90
55064;DHT22;40963;52.168;21.296;2023-06-14T07:45:19;15.00;99.90
55064;DHT22;40963;52.168;21.296;2023-06-14T07:47:45;15.10;99.90
55064;DHT22;40963;52.168;21.296;2023-06-14T07:50:10;15.20;99.90
55064;DHT22;40963;52.168;21.296;2023-06-14T07:52:37;15.20;99.90
55064;DHT22;40963;52.168;21.296;2023-06-14T07:55:02;15.30;99.90
55064;DHT22;40963;52.168;21.296;2023-06-14T07:57:28;15.30;99.90
55064;DHT22;40963;52.168;21.296;2023-06-14T07:59:54;15.30;99.90
55064;DHT22;40963;52.168;21.296;2023-06-14T08:02:20;15.30;99.90
55064;DHT22;40963;52.168;21.296;2023-06-14T08:04:45;15.30;99.90
55064;DHT22;40963;52.168;21.296;2023-06-14T08:07:14;15.40;99.90
55064;DHT22;40963;52.168;21.296;2023-06-14T08:09:39;15.50;99.90
55064;DHT22;40963;52.168;21.296;2023-06-14T08:12:06;15.50;99.90
55064;DHT22;40963;52.168;21.296;2023-06-14T08:14:35;15.50;99.90
55064;DHT22;40963;52.168;21.296;2023-06-14T08:17:01;15.60;99.90
55064;DHT22;40963;52.168;21.296;2023-06-14T08:19:27;15.60;99.90
55064;DHT22;40963;52.168;21.296;2023-06-14T08:21:53;15.70;99.90
55064;DHT22;40963;52.168;21.296;2023-06-14T08:24:21;15.70;99.90
55064;DHT22;40963;52.168;21.296;2023-06-14T08:26:50;15.80;99.90
55064;DHT22;40963;52.168;21.296;2023-06-14T08:29:15;15.80;99.90
55064;DHT22;40963;52.168;21.296;2023-06-14T08:31:41;15.80;99.90
55064;DHT22;40963;52.168;21.296;2023-06-14T08:34:07;15.80;99.90
55064;DHT22;40963;52.168;21.296;2023-06-14T08:36:32;15.90;99.90
55064;DHT22;40963;52.168;21.296;2023-06-14T08:38:58;15.90;99.90
55064;DHT22;40963;52.168;21.296;2023-06-14T08:41:24;15.90;99.90
55064;DHT22;40963;52.168;21.296;2023-06-14T08:43:50;16.00;99.90
55064;DHT22;40963;52.168;21.296;2023-06-14T08:46:18;16.00;99.90
55064;DHT22;40963;52.168;21.296;2023-06-14T08:48:48;16.10;99.90
55064;DHT22;40963;52.168;21.296;2023-06-14T08:51:17;16.20;99.90
55064;DHT22;40963;52.168;21.296;2023-06-14T08:53:44;16.20;99.90
55064;DHT22;40963;52.168;21.296;2023-06-14T08:56:11;16.30;99.90
55064;DHT22;40963;52.168;21.296;2023-06-14T08:58:49;16.30;99.90
55064;DHT22;40963;52.168;21.296;2023-06-14T09:01:14;16.30;99.90
55064;DHT22;40963;52.168;21.296;2023-06-14T09:03:43;16.30;99.90
55064;DHT22;40963;52.168;21.296;2023-06-14T09:06:10;16.40;99.90
55064;DHT22;40963;52.168;21.296;2023-06-14T09:08:43;16.50;99.90
55064;DHT22;40963;52.168;21.296;2023-06-14T09:11:14;16.50;99.90
55064;DHT22;40963;52.168;21.296;2023-06-14T09:13:41;16.50;99.90
55064;DHT22;40963;52.168;21.296;2023-06-14T09:16:07;16.60;99.90
55064;DHT22;40963;52.168;21.296;2023-06-14T09:18:38;16.70;99.90
55064;DHT22;40963;52.168;21.296;2023-06-14T09:21:07;16.90;99.90
55064;DHT22;40963;52.168;21.296;2023-06-14T09:23:40;17.00;99.90
55064;DHT22;40963;52.168;21.296;2023-06-14T09:26:16;17.10;99.90
55064;DHT22;40963;52.168;21.296;2023-06-14T09:28:47;17.10;99.90
55064;DHT22;40963;52.168;21.296;2023-06-14T09:31:18;17.10;99.90
55064;DHT22;40963;52.168;21.296;2023-06-14T09:33:49;17.10;99.90
55064;DHT22;40963;52.168;21.296;2023-06-14T09:36:21;17.10;99.90
55064;DHT22;40963;52.168;21.296;2023-06-14T09:38:59;17.10;99.90
55064;DHT22;40963;52.168;21.296;2023-06-14T09:41:39;17.20;99.90
55064;DHT22;40963;52.168;21.296;2023-06-14T09:44:07;17.20;99.90
55064;DHT22;40963;52.168;21.296;2023-06-14T09:46:34;17.20;99.90
55064;DHT22;40963;52.168;21.296;2023-06-14T09:49:02;17.20;99.90
55064;DHT22;40963;52.168;21.296;2023-06-14T09:51:29;17.20;99.90
55064;DHT22;40963;52.168;21.296;2023-06-14T09:54:01;17.20;99.90
55064;DHT22;40963;52.168;21.296;2023-06-14T09:58:57;17.20;99.90
55064;DHT22;40963;52.168;21.296;2023-06-14T10:01:25;17.20;99.90
55064;DHT22;40963;52.168;21.296;2023-06-14T10:03:55;17.30;99.90
55064;DHT22;40963;52.168;21.296;2023-06-14T10:06:23;17.30;99.90
55064;DHT22;40963;52.168;21.296;2023-06-14T10:08:52;17.30;99.90
55064;DHT22;40963;52.168;21.296;2023-06-14T10:11:21;17.30;99.90
55064;DHT22;40963;52.168;21.296;2023-06-14T10:13:47;17.30;99.90
55064;DHT22;40963;52.168;21.296;2023-06-14T10:24:05;17.30;99.90
55064;DHT22;40963;52.168;21.296;2023-06-14T10:26:32;17.30;99.90
55064;DHT22;40963;52.168;21.296;2023-06-14T10:29:00;17.20;99.90
55064;DHT22;40963;52.168;21.296;2023-06-14T10:31:46;17.20;99.90
55064;DHT22;40963;52.168;21.296;2023-06-14T10:34:30;17.20;99.90
55064;DHT22;40963;52.168;21.296;2023-06-14T10:37:06;17.20;99.90
55064;DHT22;40963;52.168;21.296;2023-06-14T10:42:05;17.20;99.90
55064;DHT22;40963;52.168;21.296;2023-06-14T10:44:38;17.10;99.90
55064;DHT22;40963;52.168;21.296;2023-06-14T10:47:09;17.10;99.90
55064;DHT22;40963;52.168;21.296;2023-06-14T10:49:42;17.00;99.90
55064;DHT22;40963;52.168;21.296;2023-06-14T10:52:12;17.00;99.90
55064;DHT22;40963;52.168;21.296;2023-06-14T10:57:37;16.90;99.90
55064;DHT22;40963;52.168;21.296;2023-06-14T11:00:04;16.90;99.90
55064;DHT22;40963;52.168;21.296;2023-06-14T11:05:49;17.00;99.90
55064;DHT22;40963;52.168;21.296;2023-06-14T11:08:47;17.10;99.90
55064;DHT22;40963;52.168;21.296;2023-06-14T11:11:17;17.10;99.90
55064;DHT22;40963;52.168;21.296;2023-06-14T11:13:45;17.20;99.90
55064;DHT22;40963;52.168;21.296;2023-06-14T11:16:14;17.20;99.90
55064;DHT22;40963;52.168;21.296;2023-06-14T11:18:41;17.30;99.90
55064;DHT22;40963;52.168;21.296;2023-06-14T11:21:07;17.50;99.90
55064;DHT22;40963;52.168;21.296;2023-06-14T11:23:34;17.60;99.90
55064;DHT22;40963;52.168;21.296;2023-06-14T11:26:00;17.70;99.90
55064;DHT22;40963;52.168;21.296;2023-06-14T11:28:39;17.80;99.90
55064;DHT22;40963;52.168;21.296;2023-06-14T11:31:05;18.00;99.90
55064;DHT22;40963;52.168;21.296;2023-06-14T11:33:31;18.10;99.90
55064;DHT22;40963;52.168;21.296;2023-06-14T11:35:57;18.20;99.90
55064;DHT22;40963;52.168;21.296;2023-06-14T11:38:23;18.30;99.90
55064;DHT22;40963;52.168;21.296;2023-06-14T11:40:50;18.40;99.90
55064;DHT22;40963;52.168;21.296;2023-06-14T11:43:15;18.40;99.90
55064;DHT22;40963;52.168;21.296;2023-06-14T11:45:42;18.50;99.90
55064;DHT22;40963;52.168;21.296;2023-06-14T11:48:07;18.50;99.90
55064;DHT22;40963;52.168;21.296;2023-06-14T11:50:37;18.40;98.90
55064;DHT22;40963;52.168;21.296;2023-06-14T11:53:04;18.40;98.30
55064;DHT22;40963;52.168;21.296;2023-06-14T11:55:38;18.40;98.40
55064;DHT22;40963;52.168;21.296;2023-06-14T11:58:04;18.50;99.00
55064;DHT22;40963;52.168;21.296;2023-06-14T12:00:30;18.50;97.80
55064;DHT22;40963;52.168;21.296;2023-06-14T12:02:57;18.50;96.70
55064;DHT22;40963;52.168;21.296;2023-06-14T12:05:23;18.60;97.70
55064;DHT22;40963;52.168;21.296;2023-06-14T12:07:50;18.70;97.40
55064;DHT22;40963;52.168;21.296;2023-06-14T12:10:18;18.90;97.30
55064;DHT22;40963;52.168;21.296;2023-06-14T12:12:44;18.90;95.10
55064;DHT22;40963;52.168;21.296;2023-06-14T12:15:10;19.00;95.50
55064;DHT22;40963;52.168;21.296;2023-06-14T12:17:39;18.90;94.90
55064;DHT22;40963;52.168;21.296;2023-06-14T12:20:12;18.90;95.30
55064;DHT22;40963;52.168;21.296;2023-06-14T12:22:59;18.90;95.80
55064;DHT22;40963;52.168;21.296;2023-06-14T12:25:31;19.00;95.10
55064;DHT22;40963;52.168;21.296;2023-06-14T12:27:59;19.00;94.50
55064;DHT22;40963;52.168;21.296;2023-06-14T12:30:25;19.10;95.00
55064;DHT22;40963;52.168;21.296;2023-06-14T12:32:50;19.10;94.20
55064;DHT22;40963;52.168;21.296;2023-06-14T12:35:17;19.10;92.40
55064;DHT22;40963;52.168;21.296;2023-06-14T12:37:44;18.90;90.40
55064;DHT22;40963;52.168;21.296;2023-06-14T12:40:11;18.80;88.90
55064;DHT22;40963;52.168;21.296;2023-06-14T12:42:37;18.80;86.50
55064;DHT22;40963;52.168;21.296;2023-06-14T12:45:03;18.70;87.00
55064;DHT22;40963;52.168;21.296;2023-06-14T12:47:28;18.60;87.60
55064;DHT22;40963;52.168;21.296;2023-06-14T12:49:54;18.50;88.50
55064;DHT22;40963;52.168;21.296;2023-06-14T12:52:19;18.60;89.70
55064;DHT22;40963;52.168;21.296;2023-06-14T12:54:45;18.70;90.90
55064;DHT22;40963;52.168;21.296;2023-06-14T12:57:11;18.80;91.20
55064;DHT22;40963;52.168;21.296;2023-06-14T12:59:36;18.80;91.10
55064;DHT22;40963;52.168;21.296;2023-06-14T13:02:12;19.00;91.10
55064;DHT22;40963;52.168;21.296;2023-06-14T13:04:38;19.10;90.50
55064;DHT22;40963;52.168;21.296;2023-06-14T13:07:04;19.10;89.70
55064;DHT22;40963;52.168;21.296;2023-06-14T13:09:30;19.10;90.00
55064;DHT22;40963;52.168;21.296;2023-06-14T13:11:55;19.10;89.40
55064;DHT22;40963;52.168;21.296;2023-06-14T13:14:21;19.10;90.00
55064;DHT22;40963;52.168;21.296;2023-06-14T13:16:47;19.20;91.10
55064;DHT22;40963;52.168;21.296;2023-06-14T13:19:12;19.30;91.60
55064;DHT22;40963;52.168;21.296;2023-06-14T13:21:38;19.40;91.50
55064;DHT22;40963;52.168;21.296;2023-06-14T13:24:04;19.50;90.70
55064;DHT22;40963;52.168;21.296;2023-06-14T13:26:29;19.60;90.70
55064;DHT22;40963;52.168;21.296;2023-06-14T13:28:55;19.70;90.10
55064;DHT22;40963;52.168;21.296;2023-06-14T13:31:20;19.70;90.00
55064;DHT22;40963;52.168;21.296;2023-06-14T13:33:46;19.60;89.00
55064;DHT22;40963;52.168;21.296;2023-06-14T13:36:12;19.60;90.10
55064;DHT22;40963;52.168;21.296;2023-06-14T13:38:38;19.70;91.00
55064;DHT22;40963;52.168;21.296;2023-06-14T13:41:03;19.80;90.60
55064;DHT22;40963;52.168;21.296;2023-06-14T13:43:29;19.80;90.20
55064;DHT22;40963;52.168;21.296;2023-06-14T13:45:55;19.80;88.00
55064;DHT22;40963;52.168;21.296;2023-06-14T13:48:21;19.80;88.30
55064;DHT22;40963;52.168;21.296;2023-06-14T13:50:47;19.70;86.50
55064;DHT22;40963;52.168;21.296;2023-06-14T13:53:13;19.60;87.80
55064;DHT22;40963;52.168;21.296;2023-06-14T13:55:39;19.60;85.60
55064;DHT22;40963;52.168;21.296;2023-06-14T13:58:05;19.40;83.70
55064;DHT22;40963;52.168;21.296;2023-06-14T14:00:30;19.30;84.80
55064;DHT22;40963;52.168;21.296;2023-06-14T14:02:56;19.20;86.80
55064;DHT22;40963;52.168;21.296;2023-06-14T14:05:22;19.10;88.40
55064;DHT22;40963;52.168;21.296;2023-06-14T14:07:54;19.10;90.20
55064;DHT22;40963;52.168;21.296;2023-06-14T14:10:20;19.10;90.60
55064;DHT22;40963;52.168;21.296;2023-06-14T14:12:45;19.10;90.80
55064;DHT22;40963;52.168;21.296;2023-06-14T14:15:12;19.10;91.00
55064;DHT22;40963;52.168;21.296;2023-06-14T14:17:40;19.00;91.30
55064;DHT22;40963;52.168;21.296;2023-06-14T14:20:06;19.00;91.80
55064;DHT22;40963;52.168;21.296;2023-06-14T14:22:32;19.00;91.70
55064;DHT22;40963;52.168;21.296;2023-06-14T14:24:58;19.00;91.60
55064;DHT22;40963;52.168;21.296;2023-06-14T14:27:23;19.00;91.80
55064;DHT22;40963;52.168;21.296;2023-06-14T14:29:49;19.00;91.70
55064;DHT22;40963;52.168;21.296;2023-06-14T14:32:15;19.10;91.60
55064;DHT22;40963;52.168;21.296;2023-06-14T14:34:41;19.20;91.20
55064;DHT22;40963;52.168;21.296;2023-06-14T14:37:07;19.20;90.60
55064;DHT22;40963;52.168;21.296;2023-06-14T14:39:32;19.10;90.30
55064;DHT22;40963;52.168;21.296;2023-06-14T14:41:58;19.10;91.00
55064;DHT22;40963;52.168;21.296;2023-06-14T14:44:24;19.10;91.20
55064;DHT22;40963;52.168;21.296;2023-06-14T14:46:49;19.00;91.50
55064;DHT22;40963;52.168;21.296;2023-06-14T14:49:15;19.00;91.70
55064;DHT22;40963;52.168;21.296;2023-06-14T14:51:41;18.90;91.80
55064;DHT22;40963;52.168;21.296;2023-06-14T14:54:06;18.80;92.60
55064;DHT22;40963;52.168;21.296;2023-06-14T14:56:32;18.80;92.70
55064;DHT22;40963;52.168;21.296;2023-06-14T14:58:58;18.80;92.90
55064;DHT22;40963;52.168;21.296;2023-06-14T15:01:24;18.70;92.90
55064;DHT22;40963;52.168;21.296;2023-06-14T15:03:49;18.70;93.60
55064;DHT22;40963;52.168;21.296;2023-06-14T15:06:15;18.70;94.10
55064;DHT22;40963;52.168;21.296;2023-06-14T15:08:43;18.70;94.00
55064;DHT22;40963;52.168;21.296;2023-06-14T15:11:09;18.60;93.90
55064;DHT22;40963;52.168;21.296;2023-06-14T15:13:34;18.60;93.80
55064;DHT22;40963;52.168;21.296;2023-06-14T15:16:00;18.50;93.90
55064;DHT22;40963;52.168;21.296;2023-06-14T15:18:26;18.50;94.70
55064;DHT22;40963;52.168;21.296;2023-06-14T15:20:51;18.50;95.10
55064;DHT22;40963;52.168;21.296;2023-06-14T15:23:17;18.50;95.80
55064;DHT22;40963;52.168;21.296;2023-06-14T15:25:45;18.50;96.50
55064;DHT22;40963;52.168;21.296;2023-06-14T15:28:14;18.50;96.80
55064;DHT22;40963;52.168;21.296;2023-06-14T15:30:40;18.50;97.20
55064;DHT22;40963;52.168;21.296;2023-06-14T15:33:06;18.50;97.00
55064;DHT22;40963;52.168;21.296;2023-06-14T15:35:32;18.50;97.30